BQN weather

Rafael Hernandez Airport
Aguadilla, Puerto Rico

Public forecast

Using degrees Celsius for public forecast. Weather courtesy of forecast.io.

Current aviation weather report (METAR) for Rafael Hernandez Airport

Retrieved 2019/12/15 19:50 UTC (47 minutes ago):

TJBQ 151950Z 10010KT 10SM SCT029 BKN050 OVC070 27/ A3000

Aviation forecast (TAF) for Rafael Hernandez Airport

Retrieved 2019/12/15 18:06 UTC (3 hours ago):

TAF TJBQ 151801Z 1518/1618 09012KT P6SM VCSH SCT025 SCT040 TEMPO 1518/1520 VRB10KT 6SM -SHRA BKN020 FM152200 11007KT P6SM FEW030 FM161400 09015KT P6SM SCT025 FM161700 09015KT P6SM VCSH SCT025 SCT040 AMD NOT SKED 1602/1611